sensor_id;sensor_type;location;lat;lon;timestamp;pressure;altitude;pressure_sealevel;temperature
70123;BMP280;57489;37.404;24.920;2023-04-03T00:02:25;99469.47;;;21.14
70123;BMP280;57489;37.404;24.920;2023-04-03T00:07:26;99467.06;;;21.09
70123;BMP280;57489;37.404;24.920;2023-04-03T00:12:26;99454.94;;;21.12
70123;BMP280;57489;37.404;24.920;2023-04-03T00:17:26;99440.38;;;21.09
70123;BMP280;57489;37.404;24.920;2023-04-03T00:22:27;99430.84;;;21.08
70123;BMP280;57489;37.404;24.920;2023-04-03T00:27:27;99426.38;;;21.12
70123;BMP280;57489;37.404;24.920;2023-04-03T00:32:28;99418.63;;;21.07
70123;BMP280;57489;37.404;24.920;2023-04-03T00:37:28;99418.97;;;21.06
70123;BMP280;57489;37.404;24.920;2023-04-03T00:42:29;99409.84;;;21.07
70123;BMP280;57489;37.404;24.920;2023-04-03T00:47:30;99401.41;;;21.05
70123;BMP280;57489;37.404;24.920;2023-04-03T00:52:31;99390.00;;;21.04
70123;BMP280;57489;37.404;24.920;2023-04-03T00:57:32;99374.06;;;21.08
70123;BMP280;57489;37.404;24.920;2023-04-03T01:02:33;99378.19;;;21.05
70123;BMP280;57489;37.404;24.920;2023-04-03T01:07:33;99364.84;;;21.05
70123;BMP280;57489;37.404;24.920;2023-04-03T01:12:38;99358.63;;;21.01
70123;BMP280;57489;37.404;24.920;2023-04-03T01:17:45;99357.13;;;21.00
70123;BMP280;57489;37.404;24.920;2023-04-03T01:28:17;99333.38;;;20.95
70123;BMP280;57489;37.404;24.920;2023-04-03T01:33:17;99334.94;;;20.96
70123;BMP280;57489;37.404;24.920;2023-04-03T01:38:18;99346.47;;;21.00
70123;BMP280;57489;37.404;24.920;2023-04-03T01:43:18;99330.72;;;20.95
70123;BMP280;57489;37.404;24.920;2023-04-03T01:48:18;99333.38;;;20.95
70123;BMP280;57489;37.404;24.920;2023-04-03T01:53:19;99311.19;;;20.91
70123;BMP280;57489;37.404;24.920;2023-04-03T01:58:19;99314.28;;;20.93
70123;BMP280;57489;37.404;24.920;2023-04-03T02:03:20;99308.94;;;20.93
70123;BMP280;57489;37.404;24.920;2023-04-03T02:08:20;99298.19;;;20.89
70123;BMP280;57489;37.404;24.920;2023-04-03T02:13:21;99290.53;;;20.88
70123;BMP280;57489;37.404;24.920;2023-04-03T02:18:21;99282.84;;;20.83
70123;BMP280;57489;37.404;24.920;2023-04-03T02:23:22;99279.00;;;20.84
70123;BMP280;57489;37.404;24.920;2023-04-03T02:28:22;99279.78;;;20.84
70123;BMP280;57489;37.404;24.920;2023-04-03T02:33:23;99285.97;;;20.88
70123;BMP280;57489;37.404;24.920;2023-04-03T02:38:24;99277.50;;;20.83
70123;BMP280;57489;37.404;24.920;2023-04-03T02:43:24;99280.50;;;20.81
70123;BMP280;57489;37.404;24.920;2023-04-03T02:48:25;99277.81;;;20.81
70123;BMP280;57489;37.404;24.920;2023-04-03T02:53:26;99277.50;;;20.83
70123;BMP280;57489;37.404;24.920;2023-04-03T02:58:26;99282.84;;;20.83
70123;BMP280;57489;37.404;24.920;2023-04-03T03:03:27;99289.53;;;20.77
70123;BMP280;57489;37.404;24.920;2023-04-03T03:08:27;99281.09;;;20.75
70123;BMP280;57489;37.404;24.920;2023-04-03T03:13:28;99286.44;;;20.75
70123;BMP280;57489;37.404;24.920;2023-04-03T03:18:29;99291.09;;;20.78
70123;BMP280;57489;37.404;24.920;2023-04-03T03:23:31;99281.97;;;20.79
70123;BMP280;57489;37.404;24.920;2023-04-03T03:28:32;99279.31;;;20.79
70123;BMP280;57489;37.404;24.920;2023-04-03T03:33:33;99283.88;;;20.78
70123;BMP280;57489;37.404;24.920;2023-04-03T03:38:34;99268.63;;;20.79
70123;BMP280;57489;37.404;24.920;2023-04-03T03:43:34;99264.59;;;20.85
70123;BMP280;57489;37.404;24.920;2023-04-03T03:48:34;99275.94;;;20.82
70123;BMP280;57489;37.404;24.920;2023-04-03T03:53:35;99275.09;;;20.78
70123;BMP280;57489;37.404;24.920;2023-04-03T03:58:35;99273.97;;;20.79
70123;BMP280;57489;37.404;24.920;2023-04-03T04:03:36;99277.91;;;20.85
70123;BMP280;57489;37.404;24.920;2023-04-03T04:08:36;99270.97;;;20.80
70123;BMP280;57489;37.404;24.920;2023-04-03T04:13:37;99273.97;;;20.79
70123;BMP280;57489;37.404;24.920;2023-04-03T04:18:37;99267.16;;;20.81
70123;BMP280;57489;37.404;24.920;2023-04-03T04:23:38;99272.59;;;20.85
70123;BMP280;57489;37.404;24.920;2023-04-03T04:28:38;99270.59;;;20.82
70123;BMP280;57489;37.404;24.920;2023-04-03T04:33:38;99272.16;;;20.83
70123;BMP280;57489;37.404;24.920;2023-04-03T04:38:39;99268.47;;;20.87
70123;BMP280;57489;37.404;24.920;2023-04-03T04:43:39;99263.53;;;20.89
70123;BMP280;57489;37.404;24.920;2023-04-03T04:48:40;99265.25;;;20.98
70123;BMP280;57489;37.404;24.920;2023-04-03T04:53:41;99256.13;;;20.99
70123;BMP280;57489;37.404;24.920;2023-04-03T04:58:42;99260.09;;;20.89
70123;BMP280;57489;37.404;24.920;2023-04-03T05:03:42;99255.47;;;20.86
70123;BMP280;57489;37.404;24.920;2023-04-03T05:08:43;99253.91;;;20.85
70123;BMP280;57489;37.404;24.920;2023-04-03T05:13:44;99234.84;;;20.83
70123;BMP280;57489;37.404;24.920;2023-04-03T05:18:44;99233.28;;;20.82
70123;BMP280;57489;37.404;24.920;2023-04-03T05:23:45;99217.69;;;20.84
70123;BMP280;57489;37.404;24.920;2023-04-03T05:28:45;99221.94;;;20.85
70123;BMP280;57489;37.404;24.920;2023-04-03T05:33:45;99205.94;;;20.85
70123;BMP280;57489;37.404;24.920;2023-04-03T05:38:46;99212.88;;;20.89
70123;BMP280;57489;37.404;24.920;2023-04-03T05:43:46;99215.88;;;20.88
70123;BMP280;57489;37.404;24.920;2023-04-03T05:48:47;99217.38;;;20.85
70123;BMP280;57489;37.404;24.920;2023-04-03T05:53:48;99211.69;;;20.87
70123;BMP280;57489;37.404;24.920;2023-04-03T05:58:50;99209.00;;;20.87
70123;BMP280;57489;37.404;24.920;2023-04-03T06:03:50;99223.88;;;20.88
70123;BMP280;57489;37.404;24.920;2023-04-03T06:08:51;99229.66;;;20.90
70123;BMP280;57489;37.404;24.920;2023-04-03T06:13:51;99226.13;;;20.86
70123;BMP280;57489;37.404;24.920;2023-04-03T06:18:52;99228.84;;;20.89
70123;BMP280;57489;37.404;24.920;2023-04-03T06:23:52;99225.94;;;20.94
70123;BMP280;57489;37.404;24.920;2023-04-03T06:28:53;99227.44;;;20.92
70123;BMP280;57489;37.404;24.920;2023-04-03T06:33:53;99242.78;;;20.99
70123;BMP280;57489;37.404;24.920;2023-04-03T06:38:54;99249.59;;;20.96
70123;BMP280;57489;37.404;24.920;2023-04-03T06:43:54;99242.88;;;21.02
70123;BMP280;57489;37.404;24.920;2023-04-03T06:48:55;99245.97;;;21.04
70123;BMP280;57489;37.404;24.920;2023-04-03T06:53:59;99229.19;;;21.04
70123;BMP280;57489;37.404;24.920;2023-04-03T06:58:59;99235.00;;;21.09
70123;BMP280;57489;37.404;24.920;2023-04-03T07:04:00;99219.41;;;21.11
70123;BMP280;57489;37.404;24.920;2023-04-03T07:09:00;99211.00;;;21.09
70123;BMP280;57489;37.404;24.920;2023-04-03T07:14:02;99204.22;;;21.12
70123;BMP280;57489;37.404;24.920;2023-04-03T07:19:03;99202.31;;;21.12
70123;BMP280;57489;37.404;24.920;2023-04-03T07:24:03;99192.06;;;21.14
70123;BMP280;57489;37.404;24.920;2023-04-03T07:29:04;99185.16;;;21.13
70123;BMP280;57489;37.404;24.920;2023-04-03T07:34:04;99178.31;;;21.12
70123;BMP280;57489;37.404;24.920;2023-04-03T07:39:05;99173.53;;;21.21
70123;BMP280;57489;37.404;24.920;2023-04-03T07:44:05;99164.06;;;21.24
70123;BMP280;57489;37.404;24.920;2023-04-03T07:49:06;99167.91;;;21.27
70123;BMP280;57489;37.404;24.920;2023-04-03T07:54:06;99158.75;;;21.28
70123;BMP280;57489;37.404;24.920;2023-04-03T07:59:07;99142.47;;;21.33
70123;BMP280;57489;37.404;24.920;2023-04-03T08:04:07;99143.66;;;21.35
70123;BMP280;57489;37.404;24.920;2023-04-03T08:09:08;99147.94;;;21.40
70123;BMP280;57489;37.404;24.920;2023-04-03T08:14:08;99136.44;;;21.59
70123;BMP280;57489;37.404;24.920;2023-04-03T08:19:09;99127.38;;;21.63
70123;BMP280;57489;37.404;24.920;2023-04-03T08:24:09;99122.50;;;21.69
70123;BMP280;57489;37.404;24.920;2023-04-03T08:29:10;99107.03;;;21.78
70123;BMP280;57489;37.404;24.920;2023-04-03T08:34:10;99107.16;;;21.89
70123;BMP280;57489;37.404;24.920;2023-04-03T08:39:11;99105.75;;;21.95
70123;BMP280;57489;37.404;24.920;2023-04-03T08:49:44;99089.09;;;22.05
70123;BMP280;57489;37.404;24.920;2023-04-03T08:54:53;99073.47;;;22.07
70123;BMP280;57489;37.404;24.920;2023-04-03T08:59:54;99068.88;;;22.04
70123;BMP280;57489;37.404;24.920;2023-04-03T09:04:54;99060.94;;;22.11
70123;BMP280;57489;37.404;24.920;2023-04-03T09:09:56;99057.88;;;22.09
70123;BMP280;57489;37.404;24.920;2023-04-03T09:15:18;99054.03;;;22.10
70123;BMP280;57489;37.404;24.920;2023-04-03T09:25:39;99052.56;;;22.43
70123;BMP280;57489;37.404;24.920;2023-04-03T09:30:40;99037.28;;;22.80
70123;BMP280;57489;37.404;24.920;2023-04-03T09:35:41;99027.91;;;22.94
70123;BMP280;57489;37.404;24.920;2023-04-03T09:40:46;99027.22;;;23.07
70123;BMP280;57489;37.404;24.920;2023-04-03T09:45:49;99024.06;;;23.43
70123;BMP280;57489;37.404;24.920;2023-04-03T09:55:50;99011.09;;;23.45
70123;BMP280;57489;37.404;24.920;2023-04-03T10:00:56;98999.88;;;23.28
70123;BMP280;57489;37.404;24.920;2023-04-03T10:05:58;99005.28;;;23.35
70123;BMP280;57489;37.404;24.920;2023-04-03T10:11:24;99000.75;;;23.39
70123;BMP280;57489;37.404;24.920;2023-04-03T10:21:53;98986.09;;;23.26
70123;BMP280;57489;37.404;24.920;2023-04-03T10:53:39;98965.09;;;23.28
70123;BMP280;57489;37.404;24.920;2023-04-03T10:58:48;98968.94;;;23.31
70123;BMP280;57489;37.404;24.920;2023-04-03T11:03:57;98963.22;;;23.32
70123;BMP280;57489;37.404;24.920;2023-04-03T11:09:03;98971.91;;;23.22
70123;BMP280;57489;37.404;24.920;2023-04-03T11:19:35;98984.72;;;22.99
70123;BMP280;57489;37.404;24.920;2023-04-03T11:24:41;98973.63;;;22.97
70123;BMP280;57489;37.404;24.920;2023-04-03T11:29:44;98965.97;;;22.95
70123;BMP280;57489;37.404;24.920;2023-04-03T11:34:51;98963.28;;;22.95
70123;BMP280;57489;37.404;24.920;2023-04-03T11:39:58;98959.50;;;23.00
70123;BMP280;57489;37.404;24.920;2023-04-03T12:05:44;98991.59;;;22.96
70123;BMP280;57489;37.404;24.920;2023-04-03T12:22:16;99011.31;;;22.81
70123;BMP280;57489;37.404;24.920;2023-04-03T12:43:22;99037.22;;;22.73
70123;BMP280;57489;37.404;24.920;2023-04-03T12:48:30;99058.22;;;22.71
70123;BMP280;57489;37.404;24.920;2023-04-03T12:53:35;99062.03;;;22.70
70123;BMP280;57489;37.404;24.920;2023-04-03T12:58:36;99071.66;;;22.75
70123;BMP280;57489;37.404;24.920;2023-04-03T13:03:39;99081.59;;;22.78
70123;BMP280;57489;37.404;24.920;2023-04-03T13:08:48;99073.97;;;22.80
70123;BMP280;57489;37.404;24.920;2023-04-03T13:14:00;99073.19;;;22.76
70123;BMP280;57489;37.404;24.920;2023-04-03T13:19:00;99067.13;;;22.79
70123;BMP280;57489;37.404;24.920;2023-04-03T13:24:02;99074.63;;;22.70
70123;BMP280;57489;37.404;24.920;2023-04-03T13:29:06;99089.84;;;22.62
70123;BMP280;57489;37.404;24.920;2023-04-03T13:34:11;99095.19;;;22.62
70123;BMP280;57489;37.404;24.920;2023-04-03T13:49:33;99110.34;;;22.54
70123;BMP280;57489;37.404;24.920;2023-04-03T13:54:38;99121.78;;;22.51
70123;BMP280;57489;37.404;24.920;2023-04-03T13:59:39;99140.84;;;22.50
70123;BMP280;57489;37.404;24.920;2023-04-03T14:09:40;99150.22;;;22.37
70123;BMP280;57489;37.404;24.920;2023-04-03T14:14:41;99155.97;;;22.39
70123;BMP280;57489;37.404;24.920;2023-04-03T14:19:41;99153.22;;;22.31
70123;BMP280;57489;37.404;24.920;2023-04-03T14:24:43;99181.06;;;22.30
70123;BMP280;57489;37.404;24.920;2023-04-03T14:29:43;99172.94;;;22.23
70123;BMP280;57489;37.404;24.920;2023-04-03T14:34:45;99181.66;;;22.20
70123;BMP280;57489;37.404;24.920;2023-04-03T14:39:47;99168.50;;;22.08
70123;BMP280;57489;37.404;24.920;2023-04-03T14:44:48;99169.34;;;22.12
70123;BMP280;57489;37.404;24.920;2023-04-03T14:49:49;99165.72;;;22.01
70123;BMP280;57489;37.404;24.920;2023-04-03T14:54:51;99180.56;;;21.98
70123;BMP280;57489;37.404;24.920;2023-04-03T14:59:52;99188.91;;;21.93
70123;BMP280;57489;37.404;24.920;2023-04-03T15:04:54;99202.31;;;21.97
70123;BMP280;57489;37.404;24.920;2023-04-03T15:09:54;99197.59;;;21.90
70123;BMP280;57489;37.404;24.920;2023-04-03T15:14:55;99210.63;;;21.92
70123;BMP280;57489;37.404;24.920;2023-04-03T15:19:55;99217.47;;;21.89
70123;BMP280;57489;37.404;24.920;2023-04-03T15:24:56;99214.66;;;21.82
70123;BMP280;57489;37.404;24.920;2023-04-03T15:29:56;99218.31;;;21.74
70123;BMP280;57489;37.404;24.920;2023-04-03T15:34:57;99213.63;;;21.67
70123;BMP280;57489;37.404;24.920;2023-04-03T15:39:58;99209.00;;;21.64
70123;BMP280;57489;37.404;24.920;2023-04-03T15:44:59;99201.72;;;21.61
70123;BMP280;57489;37.404;24.920;2023-04-03T15:49:59;99186.75;;;21.57
70123;BMP280;57489;37.404;24.920;2023-04-03T15:55:00;99167.06;;;21.65
70123;BMP280;57489;37.404;24.920;2023-04-03T16:00:01;99192.75;;;21.73
70123;BMP280;57489;37.404;24.920;2023-04-03T16:05:01;99183.91;;;21.92
70123;BMP280;57489;37.404;24.920;2023-04-03T16:10:03;99196.22;;;21.96
70123;BMP280;57489;37.404;24.920;2023-04-03T16:15:05;99185.97;;;22.02
70123;BMP280;57489;37.404;24.920;2023-04-03T16:20:06;99176.38;;;21.97
70123;BMP280;57489;37.404;24.920;2023-04-03T16:25:08;99157.31;;;21.99
70123;BMP280;57489;37.404;24.920;2023-04-03T16:30:10;99150.13;;;22.03
70123;BMP280;57489;37.404;24.920;2023-04-03T16:35:11;99160.69;;;21.96
70123;BMP280;57489;37.404;24.920;2023-04-03T16:40:12;99171.78;;;21.98
70123;BMP280;57489;37.404;24.920;2023-04-03T16:45:12;99152.28;;;21.94
70123;BMP280;57489;37.404;24.920;2023-04-03T16:50:13;99150.63;;;21.86
70123;BMP280;57489;37.404;24.920;2023-04-03T16:55:14;99143.84;;;21.92
70123;BMP280;57489;37.404;24.920;2023-04-03T17:00:14;99158.72;;;21.89
70123;BMP280;57489;37.404;24.920;2023-04-03T17:05:16;99142.41;;;21.98
70123;BMP280;57489;37.404;24.920;2023-04-03T17:10:17;99138.81;;;21.87
70123;BMP280;57489;37.404;24.920;2023-04-03T17:15:18;99120.22;;;21.94
70123;BMP280;57489;37.404;24.920;2023-04-03T17:20:18;99132.47;;;21.98
70123;BMP280;57489;37.404;24.920;2023-04-03T17:25:19;99162.19;;;21.93
70123;BMP280;57489;37.404;24.920;2023-04-03T17:30:20;99153.81;;;21.95
70123;BMP280;57489;37.404;24.920;2023-04-03T17:35:20;99140.00;;;21.66
70123;BMP280;57489;37.404;24.920;2023-04-03T17:40:21;99120.63;;;21.50
70123;BMP280;57489;37.404;24.920;2023-04-03T17:45:21;99117.31;;;21.53
70123;BMP280;57489;37.404;24.920;2023-04-03T17:50:22;99092.78;;;21.47
70123;BMP280;57489;37.404;24.920;2023-04-03T17:55:22;99104.81;;;21.38
70123;BMP280;57489;37.404;24.920;2023-04-03T18:00:23;99104.00;;;21.34
70123;BMP280;57489;37.404;24.920;2023-04-03T18:05:30;99115.34;;;21.31
70123;BMP280;57489;37.404;24.920;2023-04-03T18:10:30;99121.50;;;21.31
70123;BMP280;57489;37.404;24.920;2023-04-03T18:15:31;99084.19;;;21.35
70123;BMP280;57489;37.404;24.920;2023-04-03T18:20:31;99068.91;;;21.32
70123;BMP280;57489;37.404;24.920;2023-04-03T18:25:32;99062.78;;;21.31
70123;BMP280;57489;37.404;24.920;2023-04-03T18:30:33;99038.72;;;21.28
70123;BMP280;57489;37.404;24.920;2023-04-03T18:35:34;99026.88;;;21.25
70123;BMP280;57489;37.404;24.920;2023-04-03T18:40:34;99038.72;;;21.28
70123;BMP280;57489;37.404;24.920;2023-04-03T18:45:35;99057.63;;;21.42
70123;BMP280;57489;37.404;24.920;2023-04-03T18:50:36;99042.16;;;21.51
70123;BMP280;57489;37.404;24.920;2023-04-03T18:55:36;99027.44;;;21.61
70123;BMP280;57489;37.404;24.920;2023-04-03T19:00:38;99014.53;;;21.66
70123;BMP280;57489;37.404;24.920;2023-04-03T19:05:38;99033.63;;;21.68
70123;BMP280;57489;37.404;24.920;2023-04-03T19:10:39;99019.16;;;21.69
70123;BMP280;57489;37.404;24.920;2023-04-03T19:15:40;99018.69;;;21.64
70123;BMP280;57489;37.404;24.920;2023-04-03T19:20:40;99008.31;;;21.59
70123;BMP280;57489;37.404;24.920;2023-04-03T19:25:41;99013.63;;;21.55
70123;BMP280;57489;37.404;24.920;2023-04-03T19:30:41;99009.31;;;21.73
70123;BMP280;57489;37.404;24.920;2023-04-03T19:35:42;98998.19;;;21.71
70123;BMP280;57489;37.404;24.920;2023-04-03T19:40:43;98979.94;;;21.73
70123;BMP280;57489;37.404;24.920;2023-04-03T19:45:43;98959.72;;;21.72
70123;BMP280;57489;37.404;24.920;2023-04-03T19:50:44;98948.25;;;21.72
70123;BMP280;57489;37.404;24.920;2023-04-03T19:55:45;98958.91;;;21.68
70123;BMP280;57489;37.404;24.920;2023-04-03T20:00:46;98952.09;;;21.74
70123;BMP280;57489;37.404;24.920;2023-04-03T20:05:46;98947.38;;;21.64
70123;BMP280;57489;37.404;24.920;2023-04-03T20:10:47;98953.56;;;21.68
70123;BMP280;57489;37.404;24.920;2023-04-03T20:15:47;98948.22;;;21.68
70123;BMP280;57489;37.404;24.920;2023-04-03T20:20:52;98946.38;;;21.72
70123;BMP280;57489;37.404;24.920;2023-04-03T20:25:55;98938.38;;;21.72
70123;BMP280;57489;37.404;24.920;2023-04-03T20:30:56;98928.47;;;21.76
70123;BMP280;57489;37.404;24.920;2023-04-03T20:35:57;98931.97;;;21.81
70123;BMP280;57489;37.404;24.920;2023-04-03T20:40:57;98942.28;;;21.82
70123;BMP280;57489;37.404;24.920;2023-04-03T20:45:59;98943.00;;;21.79
70123;BMP280;57489;37.404;24.920;2023-04-03T20:51:14;98941.13;;;21.80
70123;BMP280;57489;37.404;24.920;2023-04-03T20:56:15;98951.81;;;21.80
70123;BMP280;57489;37.404;24.920;2023-04-03T21:01:21;98949.91;;;21.80
70123;BMP280;57489;37.404;24.920;2023-04-03T21:22:53;98965.78;;;21.69
70123;BMP280;57489;37.404;24.920;2023-04-03T21:27:54;98977.06;;;21.59
70123;BMP280;57489;37.404;24.920;2023-04-03T21:32:54;98966.97;;;21.45
70123;BMP280;57489;37.404;24.920;2023-04-03T21:37:54;98955.50;;;21.45
70123;BMP280;57489;37.404;24.920;2023-04-03T21:42:55;98975.53;;;21.58
70123;BMP280;57489;37.404;24.920;2023-04-03T21:47:55;98969.94;;;21.40
70123;BMP280;57489;37.404;24.920;2023-04-03T21:52:55;98968.84;;;21.45
70123;BMP280;57489;37.404;24.920;2023-04-03T21:57:56;98966.84;;;21.38
70123;BMP280;57489;37.404;24.920;2023-04-03T22:02:56;98978.28;;;21.39
70123;BMP280;57489;37.404;24.920;2023-04-03T22:07:57;98983.66;;;21.42
70123;BMP280;57489;37.404;24.920;2023-04-03T22:12:57;98986.00;;;21.44
70123;BMP280;57489;37.404;24.920;2023-04-03T22:17:58;98982.41;;;21.59
70123;BMP280;57489;37.404;24.920;2023-04-03T22:22:59;98996.78;;;21.51
70123;BMP280;57489;37.404;24.920;2023-04-03T22:27:59;98986.78;;;21.44
70123;BMP280;57489;37.404;24.920;2023-04-03T22:33:00;98993.38;;;21.28
70123;BMP280;57489;37.404;24.920;2023-04-03T22:38:00;98992.44;;;21.16
70123;BMP280;57489;37.404;24.920;2023-04-03T22:43:02;98979.38;;;21.11
70123;BMP280;57489;37.404;24.920;2023-04-03T22:48:02;98965.22;;;21.07
70123;BMP280;57489;37.404;24.920;2023-04-03T22:53:03;98959.34;;;20.98
70123;BMP280;57489;37.404;24.920;2023-04-03T22:58:04;98960.88;;;20.99
70123;BMP280;57489;37.404;24.920;2023-04-03T23:03:04;98958.50;;;20.94
70123;BMP280;57489;37.404;24.920;2023-04-03T23:08:05;98941.75;;;20.93
70123;BMP280;57489;37.404;24.920;2023-04-03T23:13:05;98929.06;;;20.87
70123;BMP280;57489;37.404;24.920;2023-04-03T23:18:05;98927.94;;;20.88
70123;BMP280;57489;37.404;24.920;2023-04-03T23:23:06;98919.53;;;20.86
70123;BMP280;57489;37.404;24.920;2023-04-03T23:28:06;98901.22;;;20.84
70123;BMP280;57489;37.404;24.920;2023-04-03T23:33:07;98905.91;;;20.91
70123;BMP280;57489;37.404;24.920;2023-04-03T23:38:07;98900.03;;;20.82
70123;BMP280;57489;37.404;24.920;2023-04-03T23:43:08;98904.59;;;20.81
70123;BMP280;57489;37.404;24.920;2023-04-03T23:48:08;98901.09;;;20.77
70123;BMP280;57489;37.404;24.920;2023-04-03T23:53:09;98903.28;;;20.72
70123;BMP280;57489;37.404;24.920;2023-04-03T23:58:09;98895.31;;;20.72
